Map

Track Data

SID SEASON NUMBER BASIN SUBBASIN NAME ISO_TIME NATURE LAT LON WMO_WIND WMO_PRES WMO_AGENCY TRACK_TYPE DIST2LAND LANDFALL IFLAG USA_AGENCY USA_ATCF_ID USA_LAT USA_LON USA_RECORD USA_STATUS USA_WIND USA_PRES USA_SSHS USA_R34_NE USA_R34_SE USA_R34_SW USA_R34_NW USA_R50_NE USA_R50_SE USA_R50_SW USA_R50_NW USA_R64_NE USA_R64_SE USA_R64_SW USA_R64_NW USA_POCI USA_ROCI USA_RMW USA_EYE TOKYO_LAT TOKYO_LON TOKYO_GRADE TOKYO_WIND TOKYO_PRES TOKYO_R50_DIR TOKYO_R50_LONG TOKYO_R50_SHORT TOKYO_R30_DIR TOKYO_R30_LONG TOKYO_R30_SHORT TOKYO_LAND CMA_LAT CMA_LON CMA_CAT CMA_WIND CMA_PRES HKO_LAT HKO_LON HKO_CAT HKO_WIND HKO_PRES NEWDELHI_LAT NEWDELHI_LON NEWDELHI_GRADE NEWDELHI_WIND NEWDELHI_PRES NEWDELHI_CI NEWDELHI_DP NEWDELHI_POCI REUNION_LAT REUNION_LON REUNION_TYPE REUNION_WIND REUNION_PRES REUNION_TNUM REUNION_CI REUNION_RMW REUNION_R34_NE REUNION_R34_SE REUNION_R34_SW REUNION_R34_NW REUNION_R50_NE REUNION_R50_SE REUNION_R50_SW REUNION_R50_NW REUNION_R64_NE REUNION_R64_SE REUNION_R64_SW REUNION_R64_NW BOM_LAT BOM_LON BOM_TYPE BOM_WIND BOM_PRES BOM_TNUM BOM_CI BOM_RMW BOM_R34_NE BOM_R34_SE BOM_R34_SW BOM_R34_NW BOM_R50_NE BOM_R50_SE BOM_R50_SW BOM_R50_NW BOM_R64_NE BOM_R64_SE BOM_R64_SW BOM_R64_NW BOM_ROCI BOM_POCI BOM_EYE BOM_POS_METHOD BOM_PRES_METHOD NADI_LAT NADI_LON NADI_CAT NADI_WIND NADI_PRES WELLINGTON_LAT WELLINGTON_LON WELLINGTON_WIND WELLINGTON_PRES DS824_LAT DS824_LON DS824_STAGE DS824_WIND DS824_PRES TD9636_LAT TD9636_LON TD9636_STAGE TD9636_WIND TD9636_PRES TD9635_LAT TD9635_LON TD9635_WIND TD9635_PRES TD9635_ROCI NEUMANN_LAT NEUMANN_LON NEUMANN_CLASS NEUMANN_WIND NEUMANN_PRES MLC_LAT MLC_LON MLC_CLASS MLC_WIND MLC_PRES USA_GUST BOM_GUST BOM_GUST_PER REUNION_GUST REUNION_GUST_PER USA_SEAHGT USA_SEARAD_NE USA_SEARAD_SE USA_SEARAD_SW USA_SEARAD_NW STORM_SPEED STORM_DIR
1957275N17241 1957 67 EP MM NOT_NAMED 1957-10-01 12:00:00 TS 17.4000 -119.400 75 hurdat_epa main 1113 1113 O________OO___ hurdat_epa EP081957 17.4000 -119.400 HU 75 1 17.4000 -119.400 TC 75 17.4000 -119.400 4 5 277
1957275N17241 1957 67 EP MM NOT_NAMED 1957-10-01 15:00:00 TS 17.4286 -119.646 main 1127 1126 P________PP___ EP081957 17.4201 -119.650 HU 75 1 17.4201 -119.650 TC 75 17.4626 -119.628 4 5 283
1957275N17241 1957 67 EP MM NOT_NAMED 1957-10-01 18:00:00 TS 17.5120 -119.893 75 hurdat_epa main 1140 1139 O________OP___ hurdat_epa EP081957 17.5000 -119.900 HU 75 1 17.5000 -119.900 TC 75 17.5601 -119.864 4 5 300
1957275N17241 1957 67 EP MM NOT_NAMED 1957-10-01 21:00:00 TS 17.6975 -120.144 main 1139 1138 P________PP___ EP081957 17.6900 -120.150 HU 75 1 17.6900 -120.150 TC 75 17.7275 -120.118 4 7 315
1957275N17241 1957 67 EP MM NOT_NAMED 1957-10-02 00:00:00 TS 18.0000 -120.400 75 hurdat_epa main 1138 1124 O________OO___ hurdat_epa EP081957 18.0000 -120.400 HU 75 1 18.0000 -120.400 TC 75 18.0000 -120.400 4 9 325
1957275N17241 1957 67 EP MM NOT_NAMED 1957-10-02 03:00:00 TS 18.4153 -120.673 main 1132 1113 P________PP___ EP081957 18.4200 -120.665 HU 75 1 18.4200 -120.665 TC 75 18.3962 -120.706 4 10 331
1957275N17241 1957 67 EP MM NOT_NAMED 1957-10-02 06:00:00 TS 18.8940 -120.917 75 hurdat_epa main 1113 1097 O________OP___ hurdat_epa EP081957 18.9000 -120.900 HU 75 1 18.9000 -120.900 TC 75 18.8698 -120.985 4 11 335
1957275N17241 1957 67 EP MM NOT_NAMED 1957-10-02 09:00:00 TS 19.3756 -121.140 main 1097 1078 P________PP___ EP081957 19.3799 -121.132 HU 75 1 19.3799 -121.132 TC 75 19.3584 -121.172 4 10 344
1957275N17241 1957 67 EP MM NOT_NAMED 1957-10-02 12:00:00 TS 19.8000 -121.200 75 hurdat_epa main 1078 1039 O________OO___ hurdat_epa EP081957 19.8000 -121.200 HU 75 1 19.8000 -121.200 TC 75 19.8000 -121.200 4 7 12
1957275N17241 1957 67 EP MM NOT_NAMED 1957-10-02 15:00:00 TS 20.0807 -120.986 main 1039 995 P________PP___ EP081957 20.0800 -120.990 HU 75 1 20.0800 -120.990 TC 75 20.0838 -120.971 4 8 48
1957275N17241 1957 67 EP MM NOT_NAMED 1957-10-02 18:00:00 TS 20.3032 -120.597 75 hurdat_epa main 995 950 O________OP___ hurdat_epa EP081957 20.3000 -120.600 HU 75 1 20.3000 -120.600 TC 75 20.3161 -120.586 4 9 60
1957275N17241 1957 67 EP MM NOT_NAMED 1957-10-02 21:00:00 TS 20.5302 -120.141 main 941 888 P________PP___ EP081957 20.5277 -120.142 HU 75 1 20.5277 -120.142 TC 75 20.5402 -120.133 4 10 59
1957275N17241 1957 67 EP MM NOT_NAMED 1957-10-03 00:00:00 TS 20.8000 -119.700 75 hurdat_epa main 888 846 O________OO___ hurdat_epa EP081957 20.8000 -119.700 HU 75 1 20.8000 -119.700 TC 75 20.8000 -119.700 4 9 45
1957275N17241 1957 67 EP MM NOT_NAMED 1957-10-03 03:00:00 TS 21.1760 -119.439 main 839 791 P________PP___ EP081957 21.1773 -119.420 HU 75 1 21.1773 -119.420 TC 75 21.1709 -119.514 4 9 29
1957275N17241 1957 67 EP MM NOT_NAMED 1957-10-03 06:00:00 TS 21.5963 -119.229 75 hurdat_epa main 791 750 O________OP___ hurdat_epa EP081957 21.6000 -119.200 HU 75 1 21.6000 -119.200 TC 75 21.5814 -119.347 4 9 23
1957275N17241 1957 67 EP MM NOT_NAMED 1957-10-03 09:00:00 TS 22.0116 -119.053 main 750 689 P________PP___ EP081957 22.0142 -119.039 HU 75 1 22.0142 -119.039 TC 75 22.0013 -119.107 4 9 31
1957275N17241 1957 67 EP MM NOT_NAMED 1957-10-03 12:00:00 TS 22.4000 -118.700 75 hurdat_epa main 689 619 O________OO___ hurdat_epa EP081957 22.4000 -118.700 HU 75 1 22.4000 -118.700 TC 75 22.4000 -118.700 4 13 55
1957275N17241 1957 67 EP MM NOT_NAMED 1957-10-03 15:00:00 TS 22.7239 -117.943 main 614 536 P________PP___ EP081957 22.7155 -117.947 HU 75 1 22.7155 -117.947 TC 75 22.7577 -117.926 4 17 69
1957275N17241 1957 67 EP MM NOT_NAMED 1957-10-03 18:00:00 TS 23.0164 -116.998 75 hurdat_epa main 527 429 O________OP___ hurdat_epa EP081957 23.0000 -117.000 HU 75 1 23.0000 -117.000 TC 75 23.0818 -116.991 4 19 71
1957275N17241 1957 67 EP MM NOT_NAMED 1957-10-03 21:00:00 TS 23.3314 -116.027 main 420 332 P________PP___ EP081957 23.3232 -116.026 HU 75 1 23.3232 -116.026 TC 75 23.3641 -116.035 4 18 71
1957275N17241 1957 67 EP MM NOT_NAMED 1957-10-04 00:00:00 TS 23.6000 -115.200 75 hurdat_epa main 332 286 O________OO___ hurdat_epa EP081957 23.6000 -115.200 HU 75 1 23.6000 -115.200 TC 75 23.6000 -115.200 4 12 69
1957275N17241 1957 67 EP MM NOT_NAMED 1957-10-04 03:00:00 TS 23.7670 -114.757 main 286 253 P________PP___ EP081957 23.7715 -114.774 HU 75 1 23.7715 -114.774 TC 75 23.7493 -114.690 4 7 66
1957275N17241 1957 67 EP MM NOT_NAMED 1957-10-04 06:00:00 TS 23.8932 -114.464 75 hurdat_epa main 253 212 O________OP___ hurdat_epa EP081957 23.9000 -114.500 HU 75 1 23.9000 -114.500 TC 75 23.8661 -114.318 4 7 68
1957275N17241 1957 67 EP MM NOT_NAMED 1957-10-04 09:00:00 TS 24.0099 -114.094 main 212 165 P________PP___ EP081957 24.0124 -114.115 HU 75 1 24.0124 -114.115 TC 75 24.0000 -114.012 4 8 66
1957275N17241 1957 67 EP MM NOT_NAMED 1957-10-04 12:00:00 TS 24.2000 -113.700 75 hurdat_epa main 165 116 O________OO___ hurdat_epa EP081957 24.2000 -113.700 HU 75 1 24.2000 -113.700 TC 75 24.2000 -113.700 4 9 54
1957275N17241 1957 67 EP MM NOT_NAMED 1957-10-04 15:00:00 TS 24.5589 -113.257 main 113 64 P________PP___ EP081957 24.5624 -113.258 HU 75 1 24.5624 -113.258 TC 75 24.5446 -113.257 4 11 46
1957275N17241 1957 67 EP MM NOT_NAMED 1957-10-04 18:00:00 TS 24.9911 -112.799 75 hurdat_epa main 64 30 O________OP___ hurdat_epa EP081957 25.0000 -112.800 HU 75 1 25.0000 -112.800 TC 75 24.9554 -112.794 4 12 45
1957275N17241 1957 67 EP MM NOT_NAMED 1957-10-04 21:00:00 TS 25.4097 -112.335 main 20 0 P________PP___ EP081957 25.4150 -112.335 HU 75 1 25.4150 -112.335 TC 75 25.3884 -112.335 4 11 45
1957275N17241 1957 67 EP MM NOT_NAMED 1957-10-05 00:00:00 TS 25.8000 -111.900 75 hurdat_epa main 0 0 O________OO___ hurdat_epa EP081957 25.8000 -111.900 HU 75 1 25.8000 -111.900 TC 75 25.8000 -111.900 4 10 45
1957275N17241 1957 67 EP MM NOT_NAMED 1957-10-05 03:00:00 TS 26.1232 -111.529 main 0 0 P________PP___ EP081957 26.1148 -111.535 HU 75 1 26.1148 -111.535 TC 75 26.1567 -111.508 4 9 46
1957275N17241 1957 67 EP MM NOT_NAMED 1957-10-05 06:00:00 TS 26.4103 -111.192 75 hurdat_epa main 19 19 O________OP___ hurdat_epa EP081957 26.4000 -111.200 HU 75 1 26.4000 -111.200 TC 75 26.4650 -111.152 4 7 51
1957275N17241 1957 67 EP MM NOT_NAMED 1957-10-05 09:00:00 TS 26.5841 -110.891 main 50 22 P________PP___ EP081957 26.5645 -110.900 HU 75 1 26.5645 -110.900 TC 75 26.7407 -110.820 4 9 46
1957275N17241 1957 67 EP MM NOT_NAMED 1957-10-05 12:00:00 TS 27.0000 -110.500 75 hurdat_epa main 22 0 O________OO___ hurdat_epa EP081957 27.0000 -110.500 HU 75 1 27.0000 -110.500 TC 75 27.0000 -110.500 4 17 32
1957275N17241 1957 67 EP MM NOT_NAMED 1957-10-05 15:00:00 TS 28.0353 -109.868 main 0 0 P________P____ EP081957 28.0353 -109.868 HU 50 0 28.0353 -109.868 TC 55 4 27 27
1957275N17241 1957 67 EP MM NOT_NAMED 1957-10-05 18:00:00 MX 29.4000 -109.100 25 hurdat_epa main 0 0 O________O____ hurdat_epa EP081957 29.4000 -109.100 TD 25 -1 29.4000 -109.100 35 4 32 26
1957275N17241 1957 67 EP MM NOT_NAMED 1957-10-05 21:00:00 MX 30.9129 -108.274 main 0 0 P________P____ EP081957 30.9129 -108.274 TD 22 -1 30.9129 -108.274 32 4 31 26
1957275N17241 1957 67 EP MM NOT_NAMED 1957-10-06 00:00:00 DS 32.2000 -107.500 20 hurdat_epa main 0 0 O________O____ hurdat_epa EP081957 32.2000 -107.500 LO 20 -3 32.2000 -107.500 30 23 30
1957275N17241 1957 67 EP MM NOT_NAMED 1957-10-06 03:00:00 DS 32.8817 -106.922 main 0 0 P________P____ EP081957 32.8817 -106.922 LO 20 -3 32.8817 -106.922 27 12 43
1957275N17241 1957 67 EP MM NOT_NAMED 1957-10-06 06:00:00 DS 33.1000 -106.500 20 hurdat_epa main 0 0 O________O____ hurdat_epa EP081957 33.1000 -106.500 LO 20 -3 33.1000 -106.500 25 6 77
1957275N17241 1957 67 EP MM NOT_NAMED 1957-10-06 09:00:00 DS 33.0228 -106.176 main 0 0 P________P____ EP081957 33.0228 -106.176 LO 20 -3 33.0228 -106.176 25 6 121
1957275N17241 1957 67 EP MM NOT_NAMED 1957-10-06 12:00:00 DS 32.8000 -105.900 20 hurdat_epa main 0 O________O____ hurdat_epa EP081957 32.8000 -105.900 LO 20 -3 32.8000 -105.900 25 6 134

About IBTrACS Database

This database is a web-friendly format of International Best Track Archive for Climate Stewardship (IBTrACS), a global best track data archive curated by NOAA dating back to 1842.

Updated: 2021-11-26